createdAt,value
2022-11-26T00:01:17.325Z,6.30
2022-11-26T00:03:44.910Z,5.00
2022-11-26T00:06:33.714Z,5.85
2022-11-26T00:09:01.230Z,5.50
2022-11-26T00:11:28.237Z,5.47
2022-11-26T00:13:55.217Z,5.35
2022-11-26T00:16:22.171Z,4.90
2022-11-26T00:18:49.106Z,5.63
2022-11-26T00:21:23.196Z,5.28
2022-11-26T00:23:51.161Z,5.50
2022-11-26T00:26:21.158Z,5.70
2022-11-26T00:29:01.314Z,4.85
2022-11-26T00:31:29.305Z,5.10
2022-11-26T00:33:56.648Z,5.22
2022-11-26T00:36:30.120Z,4.75
2022-11-26T00:39:04.176Z,5.00
2022-11-26T00:41:38.224Z,4.80
2022-11-26T00:44:22.550Z,5.18
2022-11-26T00:46:50.892Z,5.57
2022-11-26T00:49:18.629Z,5.35
2022-11-26T00:51:46.650Z,6.90
2022-11-26T00:54:17.279Z,5.22
2022-11-26T00:56:44.952Z,6.10
2022-11-26T00:59:19.635Z,6.10
2022-11-26T01:01:46.712Z,6.13
2022-11-26T01:04:13.842Z,6.80
2022-11-26T01:06:43.988Z,4.88
2022-11-26T01:09:19.835Z,4.85
2022-11-26T01:11:52.366Z,4.82
2022-11-26T01:14:22.902Z,4.57
2022-11-26T01:16:50.877Z,4.85
2022-11-26T01:19:17.867Z,5.25
2022-11-26T01:21:44.846Z,4.80
2022-11-26T01:24:11.789Z,4.90
2022-11-26T01:26:44.022Z,5.53
2022-11-26T01:29:18.988Z,5.03
2022-11-26T01:31:46.210Z,4.82
2022-11-26T01:34:13.763Z,4.80
2022-11-26T01:36:41.902Z,5.00
2022-11-26T01:39:20.214Z,4.78
2022-11-26T01:41:52.922Z,4.20
2022-11-26T01:44:26.641Z,3.97
2022-11-26T01:46:54.406Z,4.72
2022-11-26T01:49:23.265Z,4.38
2022-11-26T01:51:59.211Z,4.47
2022-11-26T01:54:26.569Z,4.45
2022-11-26T01:56:56.177Z,3.97
2022-11-26T01:59:38.195Z,3.72
2022-11-26T02:02:05.661Z,4.00
2022-11-26T02:04:37.924Z,3.97
2022-11-26T02:07:05.722Z,3.80
2022-11-26T02:09:33.191Z,3.65
2022-11-26T02:12:00.531Z,4.30
2022-11-26T02:14:35.204Z,4.18
2022-11-26T02:17:20.951Z,4.13
2022-11-26T02:20:31.560Z,3.35
2022-11-26T02:23:06.447Z,3.10
2022-11-26T02:25:42.695Z,3.75
2022-11-26T02:28:26.120Z,3.30
2022-11-26T02:31:05.667Z,3.28
2022-11-26T02:33:42.754Z,3.42
2022-11-26T02:36:22.631Z,3.00
2022-11-26T02:38:50.771Z,2.92
2022-11-26T02:41:17.727Z,3.33
2022-11-26T02:43:45.132Z,3.28
2022-11-26T02:46:17.601Z,3.38
2022-11-26T02:48:48.285Z,3.40
2022-11-26T02:51:20.855Z,3.85
2022-11-26T02:53:49.985Z,4.05
2022-11-26T02:56:21.482Z,3.90
2022-11-26T02:58:50.726Z,3.10
2022-11-26T03:01:34.425Z,3.47
2022-11-26T03:04:07.657Z,2.63
2022-11-26T03:06:35.583Z,2.97
2022-11-26T03:09:02.710Z,2.85
2022-11-26T03:11:29.747Z,3.25
2022-11-26T03:13:56.845Z,2.95
2022-11-26T03:16:23.879Z,2.70
2022-11-26T03:18:50.916Z,3.00
2022-11-26T03:21:17.902Z,2.60
2022-11-26T03:23:44.904Z,2.88
2022-11-26T03:26:11.903Z,3.67
2022-11-26T03:28:38.894Z,2.72
2022-11-26T03:31:06.032Z,2.85
2022-11-26T03:33:32.984Z,3.40
2022-11-26T03:35:59.975Z,3.00
2022-11-26T03:38:27.115Z,2.45
2022-11-26T03:41:03.480Z,2.70
2022-11-26T03:43:30.469Z,2.70
2022-11-26T03:45:57.636Z,2.50
2022-11-26T03:48:24.723Z,2.90
2022-11-26T03:50:51.740Z,2.65
2022-11-26T03:53:18.758Z,2.30
2022-11-26T03:55:45.747Z,2.45
2022-11-26T03:58:12.690Z,2.75
2022-11-26T04:00:39.696Z,2.45
2022-11-26T04:03:06.723Z,2.15
2022-11-26T04:05:33.763Z,2.55
2022-11-26T04:08:00.728Z,3.15
2022-11-26T04:10:27.701Z,3.15
2022-11-26T04:12:54.788Z,2.70
2022-11-26T04:15:21.813Z,2.65
2022-11-26T04:17:48.765Z,2.58
2022-11-26T04:20:15.914Z,2.83
2022-11-26T04:22:42.899Z,2.50
2022-11-26T04:25:09.932Z,2.70
2022-11-26T04:27:36.900Z,2.90
2022-11-26T04:30:06.285Z,2.50
2022-11-26T04:32:33.351Z,2.67
2022-11-26T04:35:00.353Z,2.60
2022-11-26T04:37:27.333Z,2.10
2022-11-26T04:39:54.269Z,3.00
2022-11-26T04:42:21.219Z,2.70
2022-11-26T04:44:48.191Z,2.67
2022-11-26T04:47:15.598Z,2.70
2022-11-26T04:49:42.841Z,2.95
2022-11-26T04:52:10.169Z,2.53
2022-11-26T04:54:37.523Z,2.25
2022-11-26T04:57:04.921Z,2.58
2022-11-26T04:59:31.886Z,2.40
2022-11-26T05:01:59.668Z,2.40
2022-11-26T05:04:27.947Z,3.13
2022-11-26T05:06:55.369Z,2.50
2022-11-26T05:09:22.824Z,2.38
2022-11-26T05:11:49.828Z,2.75
2022-11-26T05:14:16.806Z,2.30
2022-11-26T05:16:43.875Z,2.15
2022-11-26T05:19:10.886Z,1.95
2022-11-26T05:21:37.858Z,2.53
2022-11-26T05:24:05.228Z,2.55
2022-11-26T05:26:32.227Z,2.65
2022-11-26T05:28:59.242Z,2.45
2022-11-26T05:31:26.255Z,2.33
2022-11-26T05:33:53.252Z,2.22
2022-11-26T05:36:20.408Z,1.83
2022-11-26T05:38:47.399Z,2.65
2022-11-26T05:41:14.386Z,2.08
2022-11-26T05:43:41.302Z,2.30
2022-11-26T05:46:09.146Z,2.10
2022-11-26T05:48:36.175Z,2.60
2022-11-26T05:51:04.221Z,2.35
2022-11-26T05:53:31.241Z,2.03
2022-11-26T05:55:58.423Z,2.08
2022-11-26T05:58:25.740Z,1.95
2022-11-26T06:00:52.992Z,1.98
2022-11-26T06:03:20.695Z,1.70
2022-11-26T06:05:47.880Z,2.58
2022-11-26T06:08:14.923Z,2.15
2022-11-26T06:10:43.136Z,1.60
2022-11-26T06:13:10.131Z,1.95
2022-11-26T06:15:37.090Z,2.08
2022-11-26T06:18:04.114Z,2.25
2022-11-26T06:20:31.147Z,1.83
2022-11-26T06:22:58.134Z,2.08
2022-11-26T06:25:25.431Z,2.10
2022-11-26T06:27:52.353Z,3.17
2022-11-26T06:30:19.351Z,2.22
2022-11-26T06:32:46.345Z,2.20
2022-11-26T06:35:13.306Z,2.50
2022-11-26T06:37:40.390Z,2.47
2022-11-26T06:40:08.096Z,2.78
2022-11-26T06:42:35.215Z,2.95
2022-11-26T06:45:02.284Z,2.95
2022-11-26T06:47:29.213Z,3.03
2022-11-26T06:49:56.110Z,2.53
2022-11-26T06:52:23.056Z,2.90
2022-11-26T06:54:51.193Z,3.00
2022-11-26T06:57:18.825Z,3.83
2022-11-26T06:59:45.819Z,3.95
2022-11-26T07:02:12.887Z,3.15
2022-11-26T07:04:40.134Z,3.00
2022-11-26T07:07:07.289Z,4.70
2022-11-26T07:09:36.821Z,3.35
2022-11-26T07:12:04.230Z,2.78
2022-11-26T07:14:31.166Z,2.88
2022-11-26T07:16:58.121Z,3.40
2022-11-26T07:19:25.254Z,3.30
2022-11-26T07:21:52.177Z,4.00
2022-11-26T07:24:19.121Z,4.13
2022-11-26T07:26:46.097Z,6.25
2022-11-26T07:29:13.186Z,5.82
2022-11-26T07:31:40.136Z,4.47
2022-11-26T07:34:07.085Z,4.95
2022-11-26T07:36:34.254Z,4.57
2022-11-26T07:39:02.495Z,4.43
2022-11-26T07:41:30.550Z,4.45
2022-11-26T07:43:57.501Z,4.35
2022-11-26T07:46:26.131Z,4.85
2022-11-26T07:48:55.633Z,4.53
2022-11-26T07:51:33.227Z,4.40
2022-11-26T07:54:05.924Z,4.78
2022-11-26T07:56:33.268Z,4.30
2022-11-26T07:59:01.306Z,3.88
2022-11-26T08:01:31.585Z,4.30
2022-11-26T08:04:00.732Z,4.35
2022-11-26T08:06:30.395Z,4.00
2022-11-26T08:08:59.958Z,4.30
2022-11-26T08:11:30.459Z,4.25
2022-11-26T08:14:00.178Z,4.88
2022-11-26T08:16:29.005Z,5.38
2022-11-26T08:19:00.424Z,4.60
2022-11-26T08:21:27.489Z,5.80
2022-11-26T08:23:54.739Z,4.72
2022-11-26T08:26:27.538Z,3.95
2022-11-26T08:29:00.692Z,4.70
2022-11-26T08:31:28.493Z,4.03
2022-11-26T08:34:03.250Z,4.07
2022-11-26T08:36:31.386Z,4.75
2022-11-26T08:39:00.114Z,4.05
2022-11-26T08:41:27.457Z,5.20
2022-11-26T08:44:09.611Z,5.00
2022-11-26T08:46:38.688Z,5.30
2022-11-26T08:49:07.152Z,7.25
2022-11-26T08:51:34.668Z,7.35
2022-11-26T08:54:02.183Z,5.03
2022-11-26T08:56:29.696Z,4.72
2022-11-26T08:58:56.958Z,4.75
2022-11-26T09:01:29.444Z,4.72
2022-11-26T09:03:59.288Z,5.32
2022-11-26T09:06:29.360Z,3.90
2022-11-26T09:09:12.780Z,4.00
2022-11-26T09:11:54.081Z,3.95
2022-11-26T09:14:25.054Z,1.90
2022-11-26T09:16:53.829Z,1.20
2022-11-26T09:19:21.481Z,1.42
2022-11-26T09:21:49.118Z,1.10
2022-11-26T09:24:17.190Z,0.70
2022-11-26T09:26:44.688Z,0.90
2022-11-26T09:29:19.216Z,1.77
2022-11-26T09:32:15.429Z,2.80
2022-11-26T09:57:23.523Z,1.30
2022-11-26T09:59:51.994Z,0.93
2022-11-26T10:02:19.453Z,1.00
2022-11-26T10:04:47.023Z,1.02
2022-11-26T10:07:41.460Z,12.55
2022-11-26T10:13:18.057Z,1.03
2022-11-26T10:16:08.877Z,1.58
2022-11-26T10:18:44.426Z,1.27
2022-11-26T10:21:11.391Z,0.68
2022-11-26T10:24:20.681Z,0.70
2022-11-26T14:37:59.874Z,5.65
2022-11-26T14:40:33.307Z,5.63
2022-11-26T14:43:26.842Z,3.85
2022-11-26T14:46:16.106Z,8.83
2022-11-26T14:48:48.234Z,5.22
2022-11-26T14:51:26.430Z,4.47
2022-11-26T14:53:54.744Z,10.60
2022-11-26T14:56:24.713Z,5.72
2022-11-26T14:58:58.442Z,14.73
2022-11-26T15:04:01.096Z,15.00
2022-11-26T15:06:34.984Z,39.55
2022-11-26T15:09:15.342Z,17.33
2022-11-26T15:11:49.334Z,10.85
2022-11-26T15:14:29.939Z,5.50
2022-11-26T15:17:02.758Z,3.47
2022-11-26T15:19:34.801Z,3.80
2022-11-26T15:22:07.074Z,13.40
2022-11-26T15:24:34.431Z,3.53
2022-11-26T15:27:01.378Z,3.90
2022-11-26T15:29:30.803Z,4.05
2022-11-26T15:31:58.422Z,4.03
2022-11-26T15:34:26.799Z,3.95
2022-11-26T15:36:53.842Z,3.95
2022-11-26T15:39:38.995Z,4.40
2022-11-26T15:42:23.934Z,4.72
2022-11-26T15:44:50.990Z,5.07
2022-11-26T15:47:22.633Z,5.93
2022-11-26T15:49:55.146Z,5.30
2022-11-26T15:52:26.400Z,5.75
2022-11-26T15:55:14.694Z,7.00
2022-11-26T15:57:43.480Z,5.82
2022-11-26T16:00:38.440Z,4.88
2022-11-26T16:03:36.135Z,5.00
2022-11-26T16:06:06.645Z,4.80
2022-11-26T16:08:34.439Z,4.70
2022-11-26T16:11:04.090Z,4.22
2022-11-26T16:13:34.903Z,4.60
2022-11-26T16:16:12.828Z,4.03
2022-11-26T16:18:59.365Z,5.47
2022-11-26T16:21:30.291Z,5.10
2022-11-26T16:24:05.691Z,4.80
2022-11-26T16:26:52.540Z,4.35
2022-11-26T16:29:19.698Z,4.28
2022-11-26T16:31:46.918Z,5.68
2022-11-26T16:34:14.135Z,4.88
2022-11-26T16:36:42.802Z,4.38
2022-11-26T16:39:12.648Z,4.20
2022-11-26T16:41:39.595Z,3.88
2022-11-26T16:44:07.110Z,4.70
2022-11-26T16:46:38.489Z,4.82
2022-11-26T16:49:05.597Z,5.05
2022-11-26T16:51:32.678Z,4.22
2022-11-26T16:53:59.611Z,3.80
2022-11-26T16:56:37.419Z,4.07
2022-11-26T16:59:07.101Z,5.22
2022-11-26T17:01:35.191Z,6.20
2022-11-26T17:04:02.132Z,5.75
2022-11-26T17:06:33.769Z,5.15
2022-11-26T17:09:01.654Z,5.63
2022-11-26T17:11:28.645Z,5.72
2022-11-26T17:13:55.749Z,5.13
2022-11-26T17:16:24.039Z,5.28
2022-11-26T17:18:51.922Z,5.38
2022-11-26T17:21:18.915Z,4.65
2022-11-26T17:23:46.653Z,5.60
2022-11-26T17:26:21.025Z,5.18
2022-11-26T17:28:48.959Z,5.43
2022-11-26T17:31:16.372Z,5.22
2022-11-26T17:33:43.458Z,5.50
2022-11-26T17:36:22.035Z,5.35
2022-11-26T17:38:49.452Z,5.57
2022-11-26T17:41:17.155Z,5.50
2022-11-26T17:43:44.282Z,5.80
2022-11-26T17:46:21.028Z,5.75
2022-11-26T17:48:49.320Z,6.78
2022-11-26T17:51:16.896Z,5.63
2022-11-26T17:53:45.128Z,9.00
2022-11-26T17:56:23.422Z,6.15
2022-11-26T17:58:51.177Z,6.32
2022-11-26T18:01:18.856Z,5.07
2022-11-26T18:03:46.794Z,4.95
2022-11-26T18:06:18.501Z,5.60
2022-11-26T18:08:46.050Z,5.68
2022-11-26T18:11:15.284Z,5.43
2022-11-26T18:13:42.664Z,5.40
2022-11-26T18:16:09.828Z,6.00
2022-11-26T18:18:36.867Z,5.95
2022-11-26T18:21:03.885Z,6.30
2022-11-26T18:23:30.910Z,5.68
2022-11-26T18:25:58.192Z,6.22
2022-11-26T18:28:25.247Z,5.25
2022-11-26T18:30:58.297Z,7.68
2022-11-26T18:33:25.436Z,5.50
2022-11-26T18:35:54.908Z,4.95
2022-11-26T18:38:21.871Z,4.88
2022-11-26T18:40:58.664Z,5.32
2022-11-26T18:43:26.283Z,5.78
2022-11-26T18:45:53.244Z,5.50
2022-11-26T18:48:20.197Z,5.88
2022-11-26T18:50:56.310Z,5.57
2022-11-26T18:53:23.261Z,5.32
2022-11-26T18:55:50.668Z,5.88
2022-11-26T18:58:18.588Z,5.25
2022-11-26T19:00:46.395Z,4.55
2022-11-26T19:03:14.475Z,4.30
2022-11-26T19:05:45.818Z,4.75
2022-11-26T19:08:16.346Z,4.53
2022-11-26T19:10:43.680Z,4.65
2022-11-26T19:13:10.626Z,4.80
2022-11-26T19:15:45.572Z,4.70
2022-11-26T19:18:13.439Z,4.95
2022-11-26T19:20:49.179Z,4.70
2022-11-26T19:23:16.853Z,4.47
2022-11-26T19:25:43.874Z,4.45
2022-11-26T19:28:15.634Z,3.65
2022-11-26T19:30:43.708Z,4.05
2022-11-26T19:33:10.824Z,4.22
2022-11-26T19:35:41.073Z,5.15
2022-11-26T19:38:08.055Z,4.95
2022-11-26T19:40:35.058Z,4.43
2022-11-26T19:43:02.002Z,4.60
2022-11-26T19:45:29.196Z,4.20
2022-11-26T19:47:56.305Z,4.45
2022-11-26T19:50:23.309Z,4.57
2022-11-26T19:52:50.225Z,4.32
2022-11-26T19:55:17.618Z,4.45
2022-11-26T19:57:45.601Z,3.70
2022-11-26T20:00:13.403Z,4.25
2022-11-26T20:02:41.026Z,5.40
2022-11-26T20:05:09.119Z,4.70
2022-11-26T20:07:36.352Z,4.22
2022-11-26T20:10:04.247Z,3.75
2022-11-26T20:12:31.717Z,3.83
2022-11-26T20:14:59.577Z,4.05
2022-11-26T20:17:26.606Z,3.60
2022-11-26T20:19:54.201Z,4.00
2022-11-26T20:22:21.561Z,3.15
2022-11-26T20:24:48.654Z,3.25
2022-11-26T20:27:15.675Z,3.30
2022-11-26T20:29:42.776Z,3.95
2022-11-26T20:32:10.334Z,4.93
2022-11-26T20:34:37.514Z,4.20
2022-11-26T20:37:04.774Z,4.38
2022-11-26T20:39:33.666Z,3.83
2022-11-26T20:42:00.555Z,4.07
2022-11-26T20:44:28.646Z,4.07
2022-11-26T20:46:57.006Z,3.50
2022-11-26T20:49:24.251Z,5.10
2022-11-26T20:51:51.226Z,3.40
2022-11-26T20:54:18.170Z,2.92
2022-11-26T20:56:45.157Z,2.40
2022-11-26T20:59:12.160Z,3.33
2022-11-26T21:01:39.649Z,2.75
2022-11-26T21:04:06.977Z,2.80
2022-11-26T21:06:35.251Z,2.90
2022-11-26T21:09:04.844Z,3.20
2022-11-26T21:11:31.894Z,3.60
2022-11-26T21:14:00.079Z,2.92
2022-11-26T21:16:28.523Z,3.17
2022-11-26T21:18:56.271Z,3.75
2022-11-26T21:21:24.736Z,3.40
2022-11-26T21:23:52.172Z,3.80
2022-11-26T21:26:25.627Z,3.85
2022-11-26T21:28:57.945Z,3.33
2022-11-26T21:31:26.227Z,3.60
2022-11-26T21:34:01.985Z,3.40
2022-11-26T21:36:31.130Z,4.00
2022-11-26T21:38:58.576Z,2.88
2022-11-26T21:41:26.619Z,2.70
2022-11-26T21:43:54.069Z,2.72
2022-11-26T21:46:24.203Z,3.15
2022-11-26T21:48:55.743Z,2.70
2022-11-26T21:51:25.070Z,2.50
2022-11-26T21:53:54.382Z,2.45
2022-11-26T21:56:24.254Z,2.38
2022-11-26T21:58:51.699Z,2.50
2022-11-26T22:01:27.528Z,2.50
2022-11-26T22:03:56.851Z,2.17
2022-11-26T22:06:24.243Z,2.92
2022-11-26T22:08:51.506Z,2.67
2022-11-26T22:11:24.878Z,2.53
2022-11-26T22:13:52.780Z,2.88
2022-11-26T22:16:21.405Z,2.42
2022-11-26T22:18:49.455Z,2.65
2022-11-26T22:21:19.338Z,2.25
2022-11-26T22:23:46.633Z,3.17
2022-11-26T22:26:13.734Z,3.00
2022-11-26T22:28:41.152Z,3.15
2022-11-26T22:31:14.040Z,2.75
2022-11-26T22:33:41.579Z,2.33
2022-11-26T22:36:09.182Z,2.25
2022-11-26T22:38:37.541Z,2.13
2022-11-26T22:41:07.972Z,2.70
2022-11-26T22:43:35.200Z,2.38
2022-11-26T22:46:06.673Z,2.60
2022-11-26T22:48:34.814Z,2.30
2022-11-26T22:51:02.493Z,2.75
2022-11-26T22:53:29.862Z,3.15
2022-11-26T22:55:58.700Z,2.53
2022-11-26T22:58:27.668Z,2.63
2022-11-26T23:00:59.820Z,2.80
2022-11-26T23:03:28.454Z,2.20
2022-11-26T23:05:55.954Z,2.50
2022-11-26T23:08:23.272Z,2.35
2022-11-26T23:10:50.470Z,2.35
2022-11-26T23:13:18.024Z,2.22
2022-11-26T23:15:46.930Z,2.70
2022-11-26T23:18:16.225Z,2.10
2022-11-26T23:20:44.063Z,2.30
2022-11-26T23:23:11.121Z,2.35
2022-11-26T23:25:39.623Z,2.25
2022-11-26T23:28:07.424Z,2.38
2022-11-26T23:30:35.786Z,2.35
2022-11-26T23:33:03.007Z,2.33
2022-11-26T23:35:29.982Z,2.40
2022-11-26T23:37:56.934Z,2.40
2022-11-26T23:40:24.299Z,2.35
2022-11-26T23:42:51.508Z,2.35
2022-11-26T23:45:18.750Z,2.10
2022-11-26T23:47:45.787Z,2.38
2022-11-26T23:50:12.849Z,2.35
2022-11-26T23:52:39.819Z,2.80
2022-11-26T23:55:07.168Z,2.40
2022-11-26T23:57:34.678Z,2.30
